createdAt,value
2019-05-28T00:00:55.344Z,99.90
2019-05-28T00:03:25.931Z,99.90
2019-05-28T00:05:56.462Z,99.90
2019-05-28T00:08:27.167Z,99.90
2019-05-28T00:10:57.466Z,99.90
2019-05-28T00:13:27.825Z,99.90
2019-05-28T00:15:58.891Z,99.90
2019-05-28T00:18:29.202Z,99.90
2019-05-28T00:20:59.485Z,99.90
2019-05-28T00:23:29.780Z,99.90
2019-05-28T00:26:00.087Z,99.90
2019-05-28T00:28:30.403Z,99.90
2019-05-28T00:31:00.689Z,99.90
2019-05-28T00:33:30.991Z,99.90
2019-05-28T00:36:01.359Z,99.90
2019-05-28T00:38:31.649Z,99.90
2019-05-28T00:41:02.069Z,99.90
2019-05-28T00:43:32.304Z,99.90
2019-05-28T00:46:02.594Z,99.90
2019-05-28T00:48:32.961Z,99.90
2019-05-28T00:51:03.246Z,99.90
2019-05-28T00:53:33.620Z,99.90
2019-05-28T00:56:04.165Z,99.90
2019-05-28T00:58:37.183Z,99.90
2019-05-28T01:01:08.490Z,99.90
2019-05-28T01:03:39.900Z,99.90
2019-05-28T01:06:10.184Z,99.90
2019-05-28T01:08:40.469Z,99.90
2019-05-28T01:11:10.751Z,99.90
2019-05-28T01:13:41.025Z,99.90
2019-05-28T01:16:11.423Z,99.90
2019-05-28T01:18:41.733Z,99.90
2019-05-28T01:21:12.014Z,99.90
2019-05-28T01:23:42.275Z,99.90
2019-05-28T01:26:12.628Z,99.90
2019-05-28T01:28:43.181Z,99.90
2019-05-28T01:31:13.466Z,99.90
2019-05-28T01:33:44.034Z,99.90
2019-05-28T01:36:14.346Z,99.90
2019-05-28T01:38:44.619Z,99.90
2019-05-28T01:41:15.225Z,99.90
2019-05-28T01:43:46.656Z,99.90
2019-05-28T01:46:18.002Z,99.90
2019-05-28T01:48:48.542Z,99.90
2019-05-28T01:51:18.824Z,99.90
2019-05-28T01:53:49.106Z,99.90
2019-05-28T01:56:19.410Z,99.90
2019-05-28T01:58:49.700Z,99.90
2019-05-28T02:01:20.266Z,99.90
2019-05-28T02:03:50.803Z,99.90
2019-05-28T02:06:21.073Z,99.90
2019-05-28T02:08:51.656Z,99.90
2019-05-28T02:11:21.936Z,99.90
2019-05-28T02:13:52.236Z,99.90
2019-05-28T02:16:22.514Z,99.90
2019-05-28T02:18:52.804Z,99.90
2019-05-28T02:21:23.384Z,99.90
2019-05-28T02:23:53.712Z,99.90
2019-05-28T02:26:24.000Z,99.90
2019-05-28T02:28:55.378Z,99.90
2019-05-28T02:31:28.009Z,99.90
2019-05-28T02:33:57.652Z,99.90
2019-05-28T02:36:28.195Z,99.90
2019-05-28T02:38:58.481Z,99.90
2019-05-28T02:41:28.846Z,99.90
2019-05-28T02:43:59.133Z,99.90
2019-05-28T02:46:29.430Z,99.90
2019-05-28T02:48:59.719Z,99.90
2019-05-28T02:51:30.670Z,99.90
2019-05-28T02:54:01.898Z,99.90
2019-05-28T02:56:33.090Z,99.90
2019-05-28T02:59:03.842Z,99.90
2019-05-28T03:01:44.480Z,99.90
2019-05-28T03:04:10.420Z,99.90
2019-05-28T03:06:44.289Z,99.90
2019-05-28T03:09:14.834Z,99.90
2019-05-28T03:11:45.121Z,99.90
2019-05-28T03:14:15.406Z,99.90
2019-05-28T03:16:48.804Z,99.90
2019-05-28T03:19:20.003Z,99.90
2019-05-28T03:21:51.588Z,99.90
2019-05-28T03:24:23.279Z,99.90
2019-05-28T03:26:53.553Z,99.90
2019-05-28T03:29:23.969Z,99.90
2019-05-28T03:32:07.082Z,99.90
2019-05-28T03:34:26.646Z,99.90
2019-05-28T03:36:57.626Z,99.90
2019-05-28T03:39:29.309Z,99.90
2019-05-28T03:41:59.587Z,99.90
2019-05-28T03:44:29.872Z,99.90
2019-05-28T03:47:00.157Z,99.90
2019-05-28T03:49:30.438Z,99.90
2019-05-28T03:52:00.722Z,99.90
2019-05-28T03:54:31.289Z,99.90
2019-05-28T03:57:01.639Z,99.90
2019-05-28T03:59:32.247Z,99.90
2019-05-28T04:02:02.913Z,99.90
2019-05-28T04:04:33.161Z,99.90
2019-05-28T04:07:03.732Z,99.90
2019-05-28T04:09:34.061Z,99.90
2019-05-28T04:12:04.344Z,99.90
2019-05-28T04:14:34.569Z,99.90
2019-05-28T04:17:04.855Z,99.90
2019-05-28T04:19:35.138Z,99.90
2019-05-28T04:22:05.415Z,99.90
2019-05-28T04:24:35.702Z,99.90
2019-05-28T04:27:06.055Z,99.90
2019-05-28T04:29:36.337Z,99.90
2019-05-28T04:32:06.877Z,99.90
2019-05-28T04:34:37.156Z,99.90
2019-05-28T04:37:07.438Z,99.90
2019-05-28T04:39:37.710Z,99.90
2019-05-28T04:42:07.991Z,99.90
2019-05-28T04:44:38.272Z,99.90
2019-05-28T04:47:09.081Z,99.90
2019-05-28T04:49:39.421Z,99.90
2019-05-28T04:52:09.991Z,99.90
2019-05-28T04:54:40.271Z,99.90
2019-05-28T04:57:10.842Z,99.90
2019-05-28T04:59:41.124Z,99.90
2019-05-28T05:02:11.415Z,99.90
2019-05-28T05:04:41.691Z,99.90
2019-05-28T05:07:13.592Z,99.90
2019-05-28T05:09:46.884Z,99.90
2019-05-28T05:12:17.423Z,99.90
2019-05-28T05:14:47.712Z,99.90
2019-05-28T05:17:18.007Z,99.90
2019-05-28T05:19:48.308Z,99.90
2019-05-28T05:22:18.898Z,99.90
2019-05-28T05:24:49.179Z,99.90
2019-05-28T05:27:19.484Z,99.90
2019-05-28T05:29:49.774Z,99.90
2019-05-28T05:32:20.063Z,99.90
2019-05-28T05:34:50.345Z,99.90
2019-05-28T05:37:20.634Z,99.90
2019-05-28T05:39:51.175Z,99.90
2019-05-28T05:42:21.535Z,99.90
2019-05-28T05:44:51.823Z,99.90
2019-05-28T05:47:22.149Z,99.90
2019-05-28T05:49:52.396Z,99.90
2019-05-28T05:52:22.994Z,99.90
2019-05-28T05:54:54.557Z,99.90
2019-05-28T05:57:24.834Z,99.90
2019-05-28T05:59:55.137Z,99.90
2019-05-28T06:02:25.418Z,99.90
2019-05-28T06:04:55.969Z,99.90
2019-05-28T06:07:26.286Z,99.90
2019-05-28T06:09:57.507Z,99.90
2019-05-28T06:12:28.249Z,99.90
2019-05-28T06:14:58.538Z,99.90
2019-05-28T06:17:28.833Z,99.90
2019-05-28T06:19:59.118Z,99.90
2019-05-28T06:22:29.477Z,99.90
2019-05-28T06:24:59.764Z,99.90
2019-05-28T06:27:30.073Z,99.90
2019-05-28T06:30:00.395Z,99.90
2019-05-28T06:32:33.728Z,99.90
2019-05-28T06:35:02.676Z,99.90
2019-05-28T06:37:32.977Z,99.90
2019-05-28T06:40:05.452Z,99.90
2019-05-28T06:42:39.295Z,99.90
2019-05-28T06:45:10.323Z,99.90
2019-05-28T06:47:45.020Z,99.90
2019-05-28T06:50:13.129Z,99.90
2019-05-28T06:52:44.535Z,99.90
2019-05-28T06:55:15.236Z,99.90
2019-05-28T06:57:45.512Z,99.90
2019-05-28T07:00:17.130Z,99.90
2019-05-28T07:02:47.417Z,99.90
2019-05-28T07:05:18.912Z,99.90
2019-05-28T07:07:49.530Z,99.90
2019-05-28T07:10:20.159Z,99.90
2019-05-28T07:12:50.436Z,99.90
2019-05-28T07:15:20.942Z,99.90
2019-05-28T07:17:51.227Z,99.90
2019-05-28T07:20:21.654Z,99.90
2019-05-28T07:22:52.197Z,99.90
2019-05-28T07:25:22.545Z,99.90
2019-05-28T07:28:09.604Z,99.90
2019-05-28T07:30:24.807Z,99.90
2019-05-28T07:32:55.566Z,99.90
2019-05-28T07:35:25.848Z,99.90
2019-05-28T07:37:56.146Z,99.90
2019-05-28T07:40:31.713Z,99.90
2019-05-28T07:42:58.859Z,99.90
2019-05-28T07:45:29.105Z,99.90
2019-05-28T07:47:59.464Z,99.90
2019-05-28T07:50:29.745Z,99.90
2019-05-28T07:53:00.042Z,99.90
2019-05-28T07:55:30.319Z,99.90
2019-05-28T07:58:00.676Z,99.90
2019-05-28T08:00:44.300Z,99.90
2019-05-28T08:03:14.588Z,99.90
2019-05-28T08:05:44.871Z,99.90
2019-05-28T08:08:18.233Z,99.90
2019-05-28T08:10:48.598Z,99.90
2019-05-28T08:13:18.874Z,99.90
2019-05-28T08:15:49.154Z,99.90
2019-05-28T08:18:19.715Z,99.90
2019-05-28T08:20:50.242Z,99.90
2019-05-28T08:23:20.533Z,99.90
2019-05-28T08:25:50.812Z,99.90
2019-05-28T08:28:21.093Z,99.90
2019-05-28T08:30:51.406Z,99.90
2019-05-28T08:33:21.680Z,99.90
2019-05-28T08:35:51.953Z,99.90
2019-05-28T08:38:22.236Z,99.90
2019-05-28T08:40:52.832Z,99.90
2019-05-28T08:43:23.180Z,99.90
2019-05-28T08:45:53.722Z,99.90
2019-05-28T08:48:24.010Z,99.90
2019-05-28T08:50:54.283Z,99.90
2019-05-28T08:53:24.560Z,99.90
2019-05-28T08:55:54.837Z,99.90
2019-05-28T08:58:25.116Z,99.90
2019-05-28T09:00:55.388Z,99.90
2019-05-28T09:03:25.674Z,99.90
2019-05-28T09:05:55.945Z,99.90
2019-05-28T09:08:38.336Z,99.90
2019-05-28T09:10:58.443Z,99.90
2019-05-28T09:13:28.683Z,99.90
2019-05-28T09:15:59.221Z,99.90
2019-05-28T09:18:29.492Z,99.90
2019-05-28T09:20:59.809Z,99.90
2019-05-28T09:23:30.064Z,99.90
2019-05-28T09:26:00.347Z,99.90
2019-05-28T09:28:31.401Z,99.90
2019-05-28T09:31:02.445Z,99.90
2019-05-28T09:33:32.719Z,99.90
2019-05-28T09:36:08.807Z,99.90
2019-05-28T09:38:35.086Z,99.90
2019-05-28T09:41:06.050Z,99.90
2019-05-28T09:43:36.532Z,99.90
2019-05-28T09:46:06.820Z,99.90
2019-05-28T09:48:37.098Z,99.90
2019-05-28T09:51:07.378Z,99.90
2019-05-28T09:53:37.656Z,99.90
2019-05-28T09:56:07.929Z,99.90
2019-05-28T09:58:38.215Z,99.90
2019-05-28T10:01:08.662Z,99.90
2019-05-28T10:03:38.958Z,99.90
2019-05-28T10:06:16.907Z,99.90
2019-05-28T10:08:41.505Z,99.90
2019-05-28T10:11:11.748Z,99.90
2019-05-28T10:13:42.146Z,99.90
2019-05-28T10:16:12.385Z,99.90
2019-05-28T10:18:43.788Z,99.90
2019-05-28T10:21:18.849Z,99.90
2019-05-28T10:23:46.036Z,99.90
2019-05-28T10:26:16.315Z,99.90
2019-05-28T10:28:50.296Z,99.90
2019-05-28T10:31:18.578Z,99.90
2019-05-28T10:33:48.853Z,99.90
2019-05-28T10:36:34.501Z,99.90
2019-05-28T10:38:51.106Z,99.90
2019-05-28T10:41:21.394Z,99.90
2019-05-28T10:43:51.665Z,99.90
2019-05-28T10:46:21.949Z,99.90
2019-05-28T10:48:52.222Z,99.90
2019-05-28T10:51:22.504Z,99.90
2019-05-28T10:53:53.141Z,99.90
2019-05-28T10:56:23.825Z,99.90
2019-05-28T10:58:54.117Z,99.90
2019-05-28T11:01:24.394Z,99.90
2019-05-28T11:03:54.678Z,99.90
2019-05-28T11:06:25.939Z,99.90
2019-05-28T11:08:56.626Z,99.90
2019-05-28T11:11:26.906Z,99.90
2019-05-28T11:13:57.507Z,99.90
2019-05-28T11:16:27.778Z,99.90
2019-05-28T11:18:58.089Z,99.90
2019-05-28T11:21:28.367Z,99.90
2019-05-28T11:23:58.651Z,99.90
2019-05-28T11:26:29.026Z,99.90
2019-05-28T11:28:59.304Z,99.90
2019-05-28T11:31:29.668Z,99.90
2019-05-28T11:33:59.953Z,99.90
2019-05-28T11:36:30.505Z,99.90
2019-05-28T11:39:01.040Z,99.90
2019-05-28T11:41:41.342Z,99.90
2019-05-28T11:44:03.312Z,99.90
2019-05-28T11:46:33.606Z,99.90
2019-05-28T11:49:03.886Z,98.70
2019-05-28T11:51:34.164Z,98.80
2019-05-28T11:54:04.602Z,99.60
2019-05-28T11:56:34.927Z,99.40
2019-05-28T11:59:05.743Z,96.10
2019-05-28T12:01:36.035Z,95.70
2019-05-28T12:04:06.377Z,97.20
2019-05-28T12:06:38.293Z,96.90
2019-05-28T12:09:09.599Z,96.50
2019-05-28T12:11:39.889Z,90.20
2019-05-28T12:14:10.172Z,91.30
2019-05-28T12:16:40.450Z,91.90
2019-05-28T12:19:10.723Z,92.40
2019-05-28T12:21:41.020Z,93.60
2019-05-28T12:24:11.310Z,93.50
2019-05-28T12:26:41.623Z,94.00
2019-05-28T12:29:11.968Z,93.90
2019-05-28T12:31:42.234Z,93.80
2019-05-28T12:34:13.053Z,94.80
2019-05-28T12:36:43.327Z,95.20
2019-05-28T12:39:13.607Z,94.80
2019-05-28T12:41:43.891Z,94.70
2019-05-28T12:44:17.295Z,94.80
2019-05-28T12:46:46.150Z,96.00
2019-05-28T12:49:16.775Z,95.40
2019-05-28T12:51:49.073Z,95.90
2019-05-28T12:54:19.044Z,96.20
2019-05-28T12:56:49.531Z,97.90
2019-05-28T12:59:19.846Z,97.40
2019-05-28T13:01:50.121Z,97.20
2019-05-28T13:04:20.553Z,94.30
2019-05-28T13:06:50.940Z,93.40
2019-05-28T13:09:21.237Z,92.40
2019-05-28T13:11:51.525Z,91.50
2019-05-28T13:14:21.807Z,89.90
2019-05-28T13:16:52.076Z,87.90
2019-05-28T13:19:22.363Z,91.30
2019-05-28T13:21:52.652Z,91.50
2019-05-28T13:24:23.019Z,91.10
2019-05-28T13:26:53.278Z,91.50
2019-05-28T13:29:23.581Z,91.10
2019-05-28T13:31:53.875Z,92.00
2019-05-28T13:34:24.167Z,90.90
2019-05-28T13:36:54.438Z,90.90
2019-05-28T13:39:24.726Z,90.20
2019-05-28T13:41:54.995Z,88.50
2019-05-28T13:44:25.279Z,90.50
2019-05-28T13:46:55.567Z,90.60
2019-05-28T13:49:25.854Z,86.90
2019-05-28T13:52:11.041Z,86.90
2019-05-28T13:54:28.138Z,86.30
2019-05-28T13:56:58.426Z,81.30
2019-05-28T13:59:28.697Z,84.00
2019-05-28T14:01:59.706Z,91.30
2019-05-28T14:04:29.995Z,93.10
2019-05-28T14:07:00.266Z,95.00
2019-05-28T14:09:30.858Z,96.70
2019-05-28T14:12:01.147Z,97.60
2019-05-28T14:14:31.441Z,98.30
2019-05-28T14:17:01.810Z,98.60
2019-05-28T14:19:32.113Z,98.50
2019-05-28T14:22:04.654Z,99.00
2019-05-28T14:24:34.441Z,99.50
2019-05-28T14:27:04.682Z,99.80
2019-05-28T14:29:34.962Z,99.50
2019-05-28T14:32:05.315Z,99.20
2019-05-28T14:34:36.058Z,98.70
2019-05-28T14:37:06.431Z,98.80
2019-05-28T14:39:40.959Z,98.20
2019-05-28T14:42:08.908Z,97.30
2019-05-28T14:44:43.029Z,97.00
2019-05-28T14:47:11.178Z,97.10
2019-05-28T14:49:41.925Z,97.40
2019-05-28T14:52:12.200Z,97.10
2019-05-28T14:54:42.553Z,97.00
2019-05-28T14:57:13.061Z,96.00
2019-05-28T14:59:43.351Z,96.20
2019-05-28T15:02:14.521Z,96.90
2019-05-28T15:04:45.170Z,97.50
2019-05-28T15:07:15.434Z,97.10
2019-05-28T15:09:45.715Z,96.70
2019-05-28T15:12:17.984Z,96.50
2019-05-28T15:14:48.293Z,95.30
2019-05-28T15:17:18.565Z,96.10
2019-05-28T15:19:48.844Z,96.30
2019-05-28T15:22:19.394Z,96.20
2019-05-28T15:24:50.089Z,94.40
2019-05-28T15:27:20.637Z,94.80
2019-05-28T15:29:51.187Z,95.40
2019-05-28T15:32:21.799Z,95.30
2019-05-28T15:34:52.075Z,95.60
2019-05-28T15:37:23.786Z,95.40
2019-05-28T15:39:54.138Z,94.60
2019-05-28T15:42:24.434Z,94.20
2019-05-28T15:44:54.714Z,92.60
2019-05-28T15:47:24.998Z,93.60
2019-05-28T15:49:55.273Z,93.00
2019-05-28T15:52:25.554Z,91.60
2019-05-28T15:54:56.158Z,90.90
2019-05-28T15:57:26.440Z,91.70
2019-05-28T15:59:56.723Z,91.00
2019-05-28T16:02:27.006Z,90.80
2019-05-28T16:04:57.290Z,90.20
2019-05-28T16:07:27.565Z,90.20
2019-05-28T16:09:57.851Z,90.30
2019-05-28T16:12:28.138Z,90.30
2019-05-28T16:14:58.401Z,89.90
2019-05-28T16:17:29.826Z,89.40
2019-05-28T16:20:00.106Z,89.70
2019-05-28T16:22:30.350Z,90.90
2019-05-28T16:25:00.634Z,89.20
2019-05-28T16:27:30.904Z,89.40
2019-05-28T16:30:01.202Z,89.60
2019-05-28T16:32:31.481Z,89.90
2019-05-28T16:35:01.823Z,89.50
2019-05-28T16:37:32.109Z,90.30
2019-05-28T16:40:14.454Z,90.80
2019-05-28T16:42:34.553Z,90.60
2019-05-28T16:45:07.144Z,90.40
2019-05-28T16:47:37.424Z,90.50
2019-05-28T16:50:13.351Z,90.50
2019-05-28T16:52:42.691Z,90.70
2019-05-28T16:55:14.563Z,91.00
2019-05-28T16:57:44.935Z,91.00
2019-05-28T17:00:16.589Z,90.00
2019-05-28T17:02:46.939Z,91.20
2019-05-28T17:05:17.630Z,90.90
2019-05-28T17:07:47.978Z,90.90
2019-05-28T17:10:32.317Z,91.00
2019-05-28T17:12:50.517Z,90.90
2019-05-28T17:15:21.074Z,91.30
2019-05-28T17:17:52.459Z,91.90
2019-05-28T17:20:22.728Z,92.20
2019-05-28T17:22:55.297Z,92.40
2019-05-28T17:25:24.981Z,93.00
2019-05-28T17:27:55.298Z,94.00
2019-05-28T17:30:25.536Z,94.80
2019-05-28T17:32:55.838Z,94.80
2019-05-28T17:35:26.100Z,95.60
2019-05-28T17:37:56.378Z,95.80
2019-05-28T17:40:26.991Z,95.10
2019-05-28T17:42:57.516Z,94.40
2019-05-28T17:45:27.813Z,93.40
2019-05-28T17:47:58.099Z,94.10
2019-05-28T17:50:28.378Z,94.20
2019-05-28T17:52:58.681Z,92.40
2019-05-28T17:55:29.188Z,94.10
2019-05-28T17:57:59.477Z,93.30
2019-05-28T18:00:30.890Z,94.60
2019-05-28T18:03:01.179Z,94.30
2019-05-28T18:05:31.454Z,93.30
2019-05-28T18:08:01.746Z,92.90
2019-05-28T18:10:32.042Z,92.40
2019-05-28T18:13:02.314Z,94.10
2019-05-28T18:15:32.864Z,93.70
2019-05-28T18:18:03.171Z,94.10
2019-05-28T18:20:33.455Z,94.50
2019-05-28T18:23:03.751Z,94.50
2019-05-28T18:25:34.264Z,94.90
2019-05-28T18:28:04.931Z,93.10
2019-05-28T18:30:35.208Z,93.30
2019-05-28T18:33:05.490Z,93.10
2019-05-28T18:35:35.841Z,93.20
2019-05-28T18:38:06.123Z,92.40
2019-05-28T18:40:36.395Z,92.60
2019-05-28T18:43:06.669Z,92.00
2019-05-28T18:45:36.946Z,93.20
2019-05-28T18:48:07.224Z,93.40
2019-05-28T18:50:37.506Z,94.00
2019-05-28T18:53:07.780Z,93.30
2019-05-28T18:55:38.064Z,93.40
2019-05-28T18:58:08.493Z,93.60
2019-05-28T19:00:38.979Z,94.00
2019-05-28T19:03:09.263Z,94.20
2019-05-28T19:05:39.545Z,94.20
2019-05-28T19:08:09.831Z,94.00
2019-05-28T19:10:40.106Z,94.80
2019-05-28T19:13:10.458Z,95.70
2019-05-28T19:15:40.730Z,96.80
2019-05-28T19:18:11.010Z,97.10
2019-05-28T19:20:42.419Z,98.00
2019-05-28T19:23:12.706Z,98.50
2019-05-28T19:25:42.985Z,98.70
2019-05-28T19:28:13.265Z,99.20
2019-05-28T19:30:43.539Z,99.70
2019-05-28T19:33:13.849Z,99.90
2019-05-28T19:35:44.120Z,99.90
2019-05-28T19:38:14.818Z,99.90
2019-05-28T19:40:45.348Z,99.90
2019-05-28T19:43:15.628Z,99.90
2019-05-28T19:45:47.215Z,99.90
2019-05-28T19:48:17.498Z,99.90
2019-05-28T19:50:47.783Z,99.90
2019-05-28T19:53:18.062Z,99.90
2019-05-28T19:55:48.357Z,99.90
2019-05-28T19:58:18.642Z,99.90
2019-05-28T20:00:48.996Z,99.90
2019-05-28T20:03:20.104Z,99.90
2019-05-28T20:05:50.387Z,99.90
2019-05-28T20:08:20.675Z,99.90
2019-05-28T20:10:51.042Z,99.90
2019-05-28T20:13:21.322Z,99.90
2019-05-28T20:15:51.600Z,99.90
2019-05-28T20:18:26.674Z,99.90
2019-05-28T20:20:53.903Z,99.90
2019-05-28T20:23:25.163Z,99.90
2019-05-28T20:25:56.017Z,99.90
2019-05-28T20:28:26.364Z,99.90
2019-05-28T20:30:56.638Z,99.90
2019-05-28T20:33:26.920Z,99.90
2019-05-28T20:35:57.199Z,99.90
2019-05-28T20:38:27.508Z,99.90
2019-05-28T20:40:58.034Z,99.90
2019-05-28T20:43:28.318Z,99.90
2019-05-28T20:45:58.603Z,99.90
2019-05-28T20:48:29.882Z,99.90
2019-05-28T20:51:09.719Z,99.90
2019-05-28T20:53:35.975Z,99.90
2019-05-28T20:56:08.498Z,99.90
2019-05-28T20:58:40.584Z,99.90
2019-05-28T21:01:10.870Z,99.90
2019-05-28T21:03:41.107Z,99.90
2019-05-28T21:06:11.467Z,99.90
2019-05-28T21:08:41.751Z,99.90
2019-05-28T21:11:12.039Z,99.90
2019-05-28T21:13:42.322Z,99.90
2019-05-28T21:16:12.925Z,99.90
2019-05-28T21:18:43.204Z,99.90
2019-05-28T21:21:13.487Z,99.90
2019-05-28T21:23:43.779Z,99.90
2019-05-28T21:26:14.057Z,99.90
2019-05-28T21:28:44.354Z,99.90
2019-05-28T21:31:14.981Z,99.90
2019-05-28T21:33:45.507Z,99.90
2019-05-28T21:36:16.031Z,99.90
2019-05-28T21:38:46.330Z,99.90
2019-05-28T21:41:16.612Z,99.90
2019-05-28T21:43:47.771Z,99.90
2019-05-28T21:46:18.062Z,99.90
2019-05-28T21:48:48.344Z,99.90
2019-05-28T21:51:18.630Z,99.90
2019-05-28T21:53:48.911Z,99.90
2019-05-28T21:56:19.207Z,99.90
2019-05-28T21:58:49.504Z,99.90
2019-05-28T22:01:24.439Z,99.90
2019-05-28T22:03:55.228Z,99.90
2019-05-28T22:06:25.553Z,99.90
2019-05-28T22:08:55.827Z,99.90
2019-05-28T22:11:26.169Z,99.90
2019-05-28T22:13:56.422Z,99.90
2019-05-28T22:16:26.721Z,99.90
2019-05-28T22:18:58.179Z,99.90
2019-05-28T22:21:28.652Z,99.90
2019-05-28T22:23:59.040Z,99.90
2019-05-28T22:26:29.346Z,99.90
2019-05-28T22:28:59.728Z,99.90
2019-05-28T22:31:30.328Z,99.90
2019-05-28T22:34:01.042Z,99.90
2019-05-28T22:36:31.705Z,99.90
2019-05-28T22:39:09.163Z,99.90
2019-05-28T22:41:41.719Z,99.90
2019-05-28T22:44:12.991Z,99.90
2019-05-28T22:46:43.519Z,99.90
2019-05-28T22:49:13.875Z,99.90
2019-05-28T22:51:44.230Z,99.90
2019-05-28T22:54:14.605Z,99.90
2019-05-28T22:56:45.805Z,99.90
2019-05-28T22:59:16.250Z,99.90
2019-05-28T23:01:46.603Z,99.90
2019-05-28T23:04:17.080Z,99.90
2019-05-28T23:06:47.439Z,99.90
2019-05-28T23:09:17.876Z,99.90
2019-05-28T23:11:48.228Z,99.90
2019-05-28T23:14:18.615Z,99.90
2019-05-28T23:16:48.977Z,99.90
2019-05-28T23:19:19.341Z,99.90
2019-05-28T23:21:49.702Z,99.90
2019-05-28T23:24:20.314Z,99.90
2019-05-28T23:26:50.673Z,99.90
2019-05-28T23:29:21.262Z,99.90
2019-05-28T23:31:51.688Z,99.90
2019-05-28T23:34:22.031Z,99.90
2019-05-28T23:36:52.390Z,99.90
2019-05-28T23:39:22.746Z,99.90
2019-05-28T23:41:53.376Z,99.90
2019-05-28T23:44:24.574Z,99.90
2019-05-28T23:46:54.941Z,99.90
2019-05-28T23:49:25.295Z,99.90
2019-05-28T23:51:55.676Z,99.90
2019-05-28T23:54:26.089Z,99.90
2019-05-28T23:56:56.477Z,99.90
2019-05-28T23:59:26.893Z,99.90
